createdAt,value
2019-05-14T00:01:43.958Z,3.32
2019-05-14T00:04:13.456Z,3.29
2019-05-14T00:06:42.899Z,3.30
2019-05-14T00:09:12.330Z,3.27
2019-05-14T00:11:42.252Z,3.17
2019-05-14T00:14:11.861Z,3.20
2019-05-14T00:16:42.421Z,3.18
2019-05-14T00:19:12.301Z,3.16
2019-05-14T00:21:42.395Z,3.09
2019-05-14T00:24:11.936Z,3.10
2019-05-14T00:26:42.696Z,3.06
2019-05-14T00:29:12.529Z,3.03
2019-05-14T00:31:42.702Z,2.93
2019-05-14T00:34:12.250Z,2.93
2019-05-14T00:36:41.961Z,2.91
2019-05-14T00:39:11.555Z,2.89
2019-05-14T00:41:42.070Z,2.88
2019-05-14T00:44:13.509Z,2.84
2019-05-14T00:46:43.310Z,2.80
2019-05-14T00:49:12.800Z,2.74
2019-05-14T00:51:42.216Z,2.76
2019-05-14T00:54:11.735Z,2.71
2019-05-14T00:56:43.779Z,2.64
2019-05-14T00:59:13.184Z,2.64
2019-05-14T01:01:42.720Z,2.50
2019-05-14T01:04:12.147Z,2.44
2019-05-14T01:06:42.187Z,2.44
2019-05-14T01:09:11.806Z,2.45
2019-05-14T01:11:41.966Z,2.39
2019-05-14T01:14:12.263Z,2.44
2019-05-14T01:16:42.409Z,2.44
2019-05-14T01:19:12.548Z,2.46
2019-05-14T01:21:41.933Z,2.47
2019-05-14T01:24:12.625Z,2.43
2019-05-14T01:26:42.255Z,2.39
2019-05-14T01:29:12.050Z,2.32
2019-05-14T01:31:41.867Z,2.24
2019-05-14T01:34:11.422Z,2.19
2019-05-14T01:36:41.453Z,2.14
2019-05-14T01:39:12.095Z,2.14
2019-05-14T01:41:42.270Z,2.11
2019-05-14T01:44:12.142Z,2.06
2019-05-14T01:46:42.165Z,2.04
2019-05-14T01:49:12.212Z,2.02
2019-05-14T01:51:42.534Z,2.02
2019-05-14T01:54:12.131Z,1.99
2019-05-14T01:56:42.319Z,1.99
2019-05-14T01:59:12.251Z,1.93
2019-05-14T02:01:41.860Z,1.96
2019-05-14T02:04:11.820Z,1.97
2019-05-14T02:06:41.599Z,1.97
2019-05-14T02:09:11.290Z,2.08
2019-05-14T02:11:41.478Z,2.08
2019-05-14T02:14:11.767Z,2.07
2019-05-14T02:16:42.314Z,2.01
2019-05-14T02:19:11.833Z,2.01
2019-05-14T02:21:42.499Z,1.91
2019-05-14T02:24:12.176Z,1.88
2019-05-14T02:26:42.471Z,1.84
2019-05-14T02:29:12.623Z,1.80
2019-05-14T02:31:43.110Z,1.80
2019-05-14T02:34:12.477Z,1.72
2019-05-14T02:36:41.956Z,1.72
2019-05-14T02:39:11.317Z,1.68
2019-05-14T02:42:00.557Z,1.59
2019-05-14T02:44:30.248Z,1.59
2019-05-14T02:47:00.133Z,1.63
2019-05-14T02:49:30.397Z,1.74
2019-05-14T02:51:59.941Z,2.02
2019-05-14T02:54:30.001Z,2.02
2019-05-14T02:57:00.213Z,2.56
2019-05-14T02:59:30.741Z,3.59
2019-05-14T03:02:00.463Z,3.59
2019-05-14T03:04:31.240Z,4.06
2019-05-14T03:07:00.554Z,4.62
2019-05-14T03:09:30.078Z,5.07
2019-05-14T03:11:59.826Z,5.50
2019-05-14T03:14:30.130Z,5.88
2019-05-14T03:17:00.060Z,6.37
2019-05-14T03:19:29.949Z,6.73
2019-05-14T03:22:00.432Z,7.19
2019-05-14T03:24:29.998Z,7.57
2019-05-14T03:26:59.425Z,7.62
2019-05-14T03:29:30.848Z,7.98
2019-05-14T03:32:03.558Z,8.35
2019-05-14T03:34:34.796Z,8.53
2019-05-14T03:37:04.546Z,8.84
2019-05-14T03:39:34.041Z,9.27
2019-05-14T03:42:03.821Z,9.70
2019-05-14T03:44:33.757Z,10.10
2019-05-14T03:47:05.362Z,10.49
2019-05-14T03:49:35.130Z,10.83
2019-05-14T03:52:04.586Z,11.14
2019-05-14T03:54:34.192Z,11.35
2019-05-14T03:57:03.824Z,11.44
2019-05-14T03:59:33.610Z,11.36
2019-05-14T04:02:03.338Z,11.05
2019-05-14T04:04:33.279Z,10.74
2019-05-14T04:07:09.680Z,10.29
2019-05-14T04:09:41.390Z,9.86
2019-05-14T04:12:13.055Z,9.26
2019-05-14T04:14:46.155Z,8.86
2019-05-14T04:17:31.569Z,8.54
2019-05-14T04:19:51.478Z,8.29
2019-05-14T04:22:24.034Z,8.08
2019-05-14T04:24:55.448Z,7.93
2019-05-14T04:27:29.905Z,7.77
2019-05-14T04:30:03.981Z,7.58
2019-05-14T04:32:33.697Z,7.43
2019-05-14T04:35:03.579Z,7.34
2019-05-14T04:37:33.178Z,7.31
2019-05-14T04:40:02.884Z,7.29
2019-05-14T04:42:32.419Z,7.30
2019-05-14T04:45:05.553Z,7.28
2019-05-14T04:47:37.453Z,7.31
2019-05-14T04:50:06.266Z,7.30
2019-05-14T04:52:40.248Z,7.30
2019-05-14T04:55:09.832Z,7.31
2019-05-14T04:57:39.807Z,7.25
2019-05-14T05:00:22.548Z,7.24
2019-05-14T05:02:52.102Z,7.26
2019-05-14T05:05:21.499Z,7.29
2019-05-14T05:07:50.898Z,7.28
2019-05-14T05:10:20.504Z,7.33
2019-05-14T05:12:49.920Z,7.39
2019-05-14T05:15:19.883Z,7.48
2019-05-14T05:17:52.772Z,7.48
2019-05-14T05:20:20.790Z,7.53
2019-05-14T05:22:50.178Z,7.58
2019-05-14T05:25:19.613Z,7.64
2019-05-14T05:27:48.999Z,7.71
2019-05-14T05:30:19.164Z,7.78
2019-05-14T05:32:49.495Z,7.91
2019-05-14T05:35:19.041Z,8.01
2019-05-14T05:37:49.028Z,8.09
2019-05-14T05:40:19.723Z,8.17
2019-05-14T05:42:49.296Z,8.27
2019-05-14T05:45:18.761Z,8.39
2019-05-14T05:47:57.807Z,8.54
2019-05-14T05:50:20.480Z,8.72
2019-05-14T05:52:53.748Z,8.89
2019-05-14T05:55:22.130Z,9.07
2019-05-14T05:57:51.502Z,9.17
2019-05-14T06:00:40.058Z,9.26
2019-05-14T06:03:10.945Z,9.44
2019-05-14T06:05:40.243Z,9.62
2019-05-14T06:08:09.686Z,9.78
2019-05-14T06:10:39.933Z,9.89
2019-05-14T06:13:09.532Z,10.10
2019-05-14T06:15:47.586Z,10.16
2019-05-14T06:18:17.369Z,10.23
2019-05-14T06:20:41.227Z,10.38
2019-05-14T06:23:10.724Z,10.46
2019-05-14T06:25:40.281Z,10.56
2019-05-14T06:28:09.757Z,10.66
2019-05-14T06:30:39.842Z,10.86
2019-05-14T06:33:09.444Z,11.08
2019-05-14T06:35:39.768Z,11.20
2019-05-14T06:38:09.364Z,11.35
2019-05-14T06:40:39.701Z,11.45
2019-05-14T06:43:09.278Z,11.55
2019-05-14T06:45:39.208Z,11.67
2019-05-14T06:48:08.917Z,11.89
2019-05-14T06:50:42.571Z,12.12
2019-05-14T06:53:11.941Z,12.19
2019-05-14T06:55:41.326Z,12.43
2019-05-14T06:58:10.721Z,12.53
2019-05-14T07:00:40.123Z,12.64
2019-05-14T07:03:09.530Z,12.88
2019-05-14T07:05:39.261Z,13.13
2019-05-14T07:08:09.102Z,13.33
2019-05-14T07:10:39.539Z,13.44
2019-05-14T07:13:09.561Z,13.69
2019-05-14T07:15:38.947Z,13.84
2019-05-14T07:18:08.740Z,14.03
2019-05-14T07:20:39.224Z,14.23
2019-05-14T07:23:08.771Z,14.32
2019-05-14T07:25:39.288Z,14.37
2019-05-14T07:28:09.283Z,14.48
2019-05-14T07:30:39.601Z,14.53
2019-05-14T07:33:09.587Z,14.64
2019-05-14T07:35:39.055Z,14.64
2019-05-14T07:38:09.155Z,14.67
2019-05-14T07:40:39.203Z,14.72
2019-05-14T07:43:09.123Z,14.80
2019-05-14T07:45:38.785Z,14.86
2019-05-14T07:48:09.227Z,14.74
2019-05-14T07:50:39.871Z,14.63
2019-05-14T07:53:10.192Z,14.50
2019-05-14T07:55:39.637Z,14.43
2019-05-14T07:58:09.024Z,14.52
2019-05-14T08:00:40.201Z,14.55
2019-05-14T08:03:09.517Z,14.40
2019-05-14T08:05:39.894Z,14.47
2019-05-14T08:08:09.318Z,14.51
2019-05-14T08:10:39.281Z,14.56
2019-05-14T08:13:08.791Z,14.67
2019-05-14T08:15:38.711Z,14.68
2019-05-14T08:18:08.332Z,14.72
2019-05-14T08:20:38.126Z,14.77
2019-05-14T08:23:09.042Z,14.84
2019-05-14T08:25:39.112Z,14.89
2019-05-14T08:28:08.777Z,14.76
2019-05-14T08:30:38.903Z,14.73
2019-05-14T08:33:09.042Z,14.67
2019-05-14T08:35:39.541Z,14.80
2019-05-14T08:38:11.991Z,14.84
2019-05-14T08:40:40.154Z,14.91
2019-05-14T08:43:09.676Z,15.02
2019-05-14T08:45:39.138Z,15.04
2019-05-14T08:48:09.181Z,15.02
2019-05-14T08:50:38.895Z,15.13
2019-05-14T08:53:09.163Z,15.27
2019-05-14T08:55:40.268Z,15.43
2019-05-14T08:58:13.489Z,15.55
2019-05-14T09:00:40.766Z,15.62
2019-05-14T09:03:10.121Z,15.71
2019-05-14T09:05:39.571Z,15.67
2019-05-14T09:08:09.022Z,15.62
2019-05-14T09:10:40.314Z,15.37
2019-05-14T09:13:09.683Z,15.23
2019-05-14T09:15:39.261Z,14.94
2019-05-14T09:18:11.827Z,14.91
2019-05-14T09:20:39.965Z,14.98
2019-05-14T09:23:09.368Z,15.07
2019-05-14T09:25:47.412Z,15.30
2019-05-14T09:28:10.265Z,15.42
2019-05-14T09:30:39.672Z,15.58
2019-05-14T09:33:09.142Z,15.58
2019-05-14T09:35:38.804Z,15.72
2019-05-14T09:38:08.857Z,15.73
2019-05-14T09:40:39.699Z,15.49
2019-05-14T09:43:09.951Z,15.50
2019-05-14T09:45:39.591Z,15.50
2019-05-14T09:48:09.016Z,15.69
2019-05-14T09:50:38.667Z,15.63
2019-05-14T09:53:09.689Z,15.57
2019-05-14T09:55:39.345Z,15.72
2019-05-14T09:58:09.869Z,15.70
2019-05-14T10:00:39.255Z,15.75
2019-05-14T10:03:09.855Z,15.95
2019-05-14T10:05:39.340Z,16.32
2019-05-14T10:08:09.018Z,16.67
2019-05-14T10:10:39.888Z,16.91
2019-05-14T10:13:09.965Z,16.88
2019-05-14T10:15:39.565Z,16.76
2019-05-14T10:18:11.983Z,16.57
2019-05-14T10:20:45.312Z,16.34
2019-05-14T10:23:11.493Z,16.39
2019-05-14T10:25:42.518Z,16.58
2019-05-14T10:28:12.108Z,16.86
2019-05-14T10:30:41.854Z,17.07
2019-05-14T10:33:14.988Z,17.23
2019-05-14T10:35:42.467Z,17.29
2019-05-14T10:38:11.981Z,17.12
2019-05-14T10:40:41.754Z,17.16
2019-05-14T10:43:11.144Z,17.15
2019-05-14T10:45:40.523Z,17.06
2019-05-14T10:48:12.751Z,17.12
2019-05-14T10:50:56.237Z,17.35
2019-05-14T10:53:13.753Z,17.37
2019-05-14T10:55:43.220Z,17.39
2019-05-14T10:58:13.822Z,17.26
2019-05-14T11:00:43.338Z,17.27
2019-05-14T11:03:12.711Z,17.35
2019-05-14T11:05:42.150Z,17.48
2019-05-14T11:08:12.143Z,17.46
2019-05-14T11:10:42.531Z,17.42
2019-05-14T11:13:12.266Z,17.38
2019-05-14T11:15:41.684Z,17.42
2019-05-14T11:18:11.112Z,17.60
2019-05-14T11:20:42.275Z,17.63
2019-05-14T11:23:11.656Z,17.43
2019-05-14T11:25:41.028Z,17.29
2019-05-14T11:28:10.428Z,17.30
2019-05-14T11:30:39.805Z,17.38
2019-05-14T11:33:09.260Z,17.45
2019-05-14T11:35:39.402Z,17.37
2019-05-14T11:38:28.555Z,17.45
2019-05-14T11:40:44.574Z,17.57
2019-05-14T11:43:13.984Z,17.64
2019-05-14T11:45:43.380Z,17.70
2019-05-14T11:48:12.868Z,17.84
2019-05-14T11:50:42.285Z,17.98
2019-05-14T11:53:11.789Z,18.13
2019-05-14T11:55:41.521Z,18.01
2019-05-14T11:58:10.987Z,17.89
2019-05-14T12:00:42.988Z,17.82
2019-05-14T12:03:12.399Z,17.84
2019-05-14T12:05:41.783Z,17.97
2019-05-14T12:08:13.316Z,17.92
2019-05-14T12:10:42.729Z,17.98
2019-05-14T12:13:12.125Z,18.08
2019-05-14T12:15:41.680Z,18.16
2019-05-14T12:18:11.123Z,18.18
2019-05-14T12:20:40.509Z,18.20
2019-05-14T12:23:09.956Z,18.18
2019-05-14T12:25:39.393Z,18.25
2019-05-14T12:28:13.702Z,18.26
2019-05-14T12:30:39.902Z,18.10
2019-05-14T12:33:09.349Z,18.03
2019-05-14T12:35:40.326Z,17.92
2019-05-14T12:38:29.666Z,17.98
2019-05-14T12:41:01.961Z,18.18
2019-05-14T12:43:31.368Z,18.41
2019-05-14T12:46:00.841Z,18.61
2019-05-14T12:48:30.270Z,18.86
2019-05-14T12:51:02.868Z,19.02
2019-05-14T12:53:32.764Z,19.09
2019-05-14T12:56:02.533Z,18.80
2019-05-14T12:58:32.044Z,18.58
2019-05-14T13:01:04.408Z,18.48
2019-05-14T13:03:36.166Z,18.49
2019-05-14T13:06:10.152Z,18.53
2019-05-14T13:08:38.620Z,18.53
2019-05-14T13:11:09.641Z,18.35
2019-05-14T13:13:42.928Z,18.27
2019-05-14T13:16:10.464Z,18.16
2019-05-14T13:18:39.968Z,17.94
2019-05-14T13:21:09.371Z,17.95
2019-05-14T13:23:38.775Z,18.03
2019-05-14T13:26:10.508Z,18.09
2019-05-14T13:28:40.229Z,18.13
2019-05-14T13:31:09.868Z,18.15
2019-05-14T13:33:39.518Z,18.08
2019-05-14T13:36:09.002Z,18.25
2019-05-14T13:38:48.827Z,18.25
2019-05-14T13:41:19.217Z,18.02
2019-05-14T13:43:50.561Z,18.09
2019-05-14T13:46:19.726Z,18.13
2019-05-14T13:48:49.967Z,18.06
2019-05-14T13:51:19.752Z,18.01
2019-05-14T13:53:49.899Z,17.92
2019-05-14T13:56:20.058Z,17.91
2019-05-14T13:58:50.664Z,18.06
2019-05-14T14:01:20.161Z,18.11
2019-05-14T14:04:04.615Z,18.04
2019-05-14T14:06:21.084Z,18.11
2019-05-14T14:08:50.590Z,18.28
2019-05-14T14:11:20.055Z,18.34
2019-05-14T14:13:49.419Z,18.27
2019-05-14T14:16:19.893Z,18.28
2019-05-14T14:18:50.262Z,18.33
2019-05-14T14:21:20.103Z,18.35
2019-05-14T14:23:49.954Z,18.39
2019-05-14T14:26:19.717Z,18.48
2019-05-14T14:28:49.719Z,18.70
2019-05-14T14:31:19.348Z,18.68
2019-05-14T14:33:49.031Z,18.69
2019-05-14T14:36:20.015Z,18.75
2019-05-14T14:38:50.070Z,18.72
2019-05-14T14:41:19.760Z,18.69
2019-05-14T14:43:54.003Z,18.70
2019-05-14T14:46:20.428Z,18.81
2019-05-14T14:48:49.958Z,18.85
2019-05-14T14:51:19.701Z,18.78
2019-05-14T14:53:59.169Z,18.67
2019-05-14T14:56:20.546Z,18.64
2019-05-14T14:58:49.984Z,18.60
2019-05-14T15:01:20.129Z,18.57
2019-05-14T15:03:50.762Z,18.59
2019-05-14T15:06:20.704Z,18.59
2019-05-14T15:08:50.128Z,18.56
2019-05-14T15:11:34.245Z,18.45
2019-05-14T15:14:03.934Z,18.42
2019-05-14T15:16:33.422Z,18.40
2019-05-14T15:19:03.113Z,18.38
2019-05-14T15:21:34.618Z,18.36
2019-05-14T15:24:11.954Z,18.38
2019-05-14T15:26:35.313Z,18.65
2019-05-14T15:29:04.843Z,18.92
2019-05-14T15:31:34.354Z,19.03
2019-05-14T15:34:04.112Z,19.28
2019-05-14T15:36:34.131Z,19.51
2019-05-14T15:39:06.096Z,19.76
2019-05-14T15:41:35.603Z,19.87
2019-05-14T15:44:05.206Z,20.16
2019-05-14T15:46:34.908Z,20.32
2019-05-14T15:49:04.290Z,20.58
2019-05-14T15:51:33.880Z,20.57
2019-05-14T15:54:21.223Z,20.53
2019-05-14T15:56:35.047Z,20.33
2019-05-14T15:59:04.543Z,20.03
2019-05-14T16:01:35.203Z,19.83
2019-05-14T16:04:04.589Z,19.80
2019-05-14T16:06:34.702Z,19.83
2019-05-14T16:09:04.748Z,20.00
2019-05-14T16:11:34.229Z,19.98
2019-05-14T16:14:03.763Z,19.97
2019-05-14T16:16:33.362Z,19.79
2019-05-14T16:19:02.956Z,19.75
2019-05-14T16:21:32.761Z,19.63
2019-05-14T16:24:02.225Z,19.66
2019-05-14T16:26:35.158Z,19.65
2019-05-14T16:29:04.718Z,19.61
2019-05-14T16:31:37.369Z,19.52
2019-05-14T16:34:05.261Z,19.56
2019-05-14T16:36:34.829Z,19.48
2019-05-14T16:39:05.848Z,19.45
2019-05-14T16:41:35.230Z,19.51
2019-05-14T16:44:05.183Z,19.49
2019-05-14T16:46:34.858Z,19.56
2019-05-14T16:49:04.310Z,19.57
2019-05-14T16:51:35.436Z,19.60
2019-05-14T16:54:05.149Z,19.53
2019-05-14T16:56:35.125Z,19.46
2019-05-14T16:59:05.744Z,19.28
2019-05-14T17:01:35.501Z,19.15
2019-05-14T17:04:05.056Z,19.02
2019-05-14T17:06:34.928Z,18.92
2019-05-14T17:09:08.601Z,18.80
2019-05-14T17:11:38.982Z,18.72
2019-05-14T17:14:08.618Z,18.67
2019-05-14T17:16:38.415Z,18.55
2019-05-14T17:19:09.282Z,18.39
2019-05-14T17:21:39.109Z,18.32
2019-05-14T17:24:08.853Z,18.30
2019-05-14T17:26:38.258Z,18.22
2019-05-14T17:29:08.788Z,18.16
2019-05-14T17:31:39.062Z,18.09
2019-05-14T17:34:08.826Z,18.01
2019-05-14T17:36:38.953Z,17.83
2019-05-14T17:39:09.757Z,17.70
2019-05-14T17:41:41.969Z,17.56
2019-05-14T17:44:10.335Z,17.48
2019-05-14T17:46:39.898Z,17.31
2019-05-14T17:49:09.286Z,17.12
2019-05-14T17:51:39.205Z,16.92
2019-05-14T17:54:09.255Z,16.80
2019-05-14T17:56:39.136Z,16.85
2019-05-14T17:59:10.179Z,16.90
2019-05-14T18:01:42.520Z,16.89
2019-05-14T18:04:14.926Z,16.95
2019-05-14T18:06:44.341Z,16.93
2019-05-14T18:09:13.836Z,16.83
2019-05-14T18:11:43.293Z,16.65
2019-05-14T18:14:12.688Z,16.51
2019-05-14T18:16:42.073Z,16.32
2019-05-14T18:19:12.093Z,16.20
2019-05-14T18:21:41.807Z,16.03
2019-05-14T18:24:11.155Z,15.87
2019-05-14T18:26:40.623Z,15.78
2019-05-14T18:29:10.043Z,15.71
2019-05-14T18:31:44.069Z,15.62
2019-05-14T18:34:10.699Z,15.42
2019-05-14T18:36:40.137Z,15.24
2019-05-14T18:39:10.219Z,15.15
2019-05-14T18:41:39.746Z,15.03
2019-05-14T18:44:09.215Z,14.93
2019-05-14T18:46:39.430Z,14.83
2019-05-14T18:49:09.884Z,14.71
2019-05-14T18:51:39.267Z,14.59
2019-05-14T18:54:08.999Z,14.48
2019-05-14T18:56:38.630Z,14.37
2019-05-14T18:59:08.925Z,14.25
2019-05-14T19:01:39.668Z,14.13
2019-05-14T19:04:14.307Z,13.99
2019-05-14T19:06:43.846Z,13.84
2019-05-14T19:09:13.324Z,13.71
2019-05-14T19:11:42.869Z,13.60
2019-05-14T19:14:12.278Z,13.47
2019-05-14T19:16:41.735Z,13.35
2019-05-14T19:19:15.231Z,13.23
2019-05-14T19:21:44.634Z,13.12
2019-05-14T19:24:14.024Z,13.01
2019-05-14T19:26:43.575Z,12.89
2019-05-14T19:29:13.071Z,12.79
2019-05-14T19:31:42.437Z,12.66
2019-05-14T19:34:11.927Z,12.55
2019-05-14T19:36:41.365Z,12.44
2019-05-14T19:39:10.842Z,12.37
2019-05-14T19:41:40.336Z,12.29
2019-05-14T19:44:09.803Z,12.21
2019-05-14T19:46:39.312Z,12.11
2019-05-14T19:49:08.828Z,12.04
2019-05-14T19:51:38.927Z,11.96
2019-05-14T19:54:08.334Z,11.88
2019-05-14T19:56:52.420Z,11.76
2019-05-14T19:59:11.862Z,11.68
2019-05-14T20:01:41.983Z,11.56
2019-05-14T20:04:18.277Z,11.45
2019-05-14T20:06:49.395Z,11.35
2019-05-14T20:09:19.104Z,11.30
2019-05-14T20:11:51.258Z,11.23
2019-05-14T20:14:20.769Z,11.19
2019-05-14T20:16:50.256Z,11.15
2019-05-14T20:19:19.846Z,11.12
2019-05-14T20:21:49.311Z,11.08
2019-05-14T20:24:23.632Z,11.04
2019-05-14T20:27:04.783Z,10.97
2019-05-14T20:29:24.229Z,10.92
2019-05-14T20:31:53.620Z,10.89
2019-05-14T20:34:23.068Z,10.83
2019-05-14T20:36:52.540Z,10.79
2019-05-14T20:39:31.604Z,10.75
2019-05-14T20:42:01.018Z,10.71
2019-05-14T20:44:30.734Z,10.67
2019-05-14T20:47:00.219Z,10.60
2019-05-14T20:49:29.895Z,10.53
2019-05-14T20:52:00.461Z,10.47
2019-05-14T20:54:51.848Z,10.41
2019-05-14T20:57:26.854Z,10.35
2019-05-14T20:59:52.487Z,10.29
2019-05-14T21:02:22.584Z,10.25
2019-05-14T21:04:54.414Z,10.20
2019-05-14T21:07:23.233Z,10.15
2019-05-14T21:09:52.660Z,10.12
2019-05-14T21:12:22.165Z,10.09
2019-05-14T21:14:51.573Z,10.03
2019-05-14T21:17:21.001Z,10.01
2019-05-14T21:19:50.423Z,9.95
2019-05-14T21:22:19.826Z,9.91
2019-05-14T21:24:59.828Z,9.88
2019-05-14T21:27:41.303Z,9.86
2019-05-14T21:30:00.991Z,9.83
2019-05-14T21:32:30.763Z,9.80
2019-05-14T21:35:00.214Z,9.73
2019-05-14T21:37:29.817Z,9.69
2019-05-14T21:39:59.475Z,9.63
2019-05-14T21:42:29.110Z,9.52
2019-05-14T21:44:58.664Z,9.45
2019-05-14T21:47:28.904Z,9.39
2019-05-14T21:50:02.035Z,9.37
2019-05-14T21:52:31.398Z,9.31
2019-05-14T21:55:02.939Z,9.29
2019-05-14T21:57:32.333Z,9.27
2019-05-14T22:00:02.282Z,9.25
2019-05-14T22:02:33.382Z,9.23
2019-05-14T22:05:02.934Z,9.20
2019-05-14T22:07:32.560Z,9.15
2019-05-14T22:10:02.249Z,9.09
2019-05-14T22:12:31.999Z,9.04
2019-05-14T22:15:01.510Z,8.99
2019-05-14T22:17:31.101Z,8.94
2019-05-14T22:20:00.863Z,8.86
2019-05-14T22:22:30.845Z,8.76
2019-05-14T22:25:00.326Z,8.71
2019-05-14T22:27:32.056Z,8.64
2019-05-14T22:30:02.161Z,8.57
2019-05-14T22:32:31.736Z,8.48
2019-05-14T22:35:01.489Z,8.40
2019-05-14T22:37:33.657Z,8.36
2019-05-14T22:40:03.277Z,8.29
2019-05-14T22:42:32.848Z,8.23
2019-05-14T22:45:05.486Z,8.19
2019-05-14T22:47:34.957Z,8.16
2019-05-14T22:50:04.466Z,8.12
2019-05-14T22:52:34.060Z,8.06
2019-05-14T22:55:03.547Z,8.02
2019-05-14T22:57:32.988Z,7.98
2019-05-14T23:00:02.699Z,7.95
2019-05-14T23:02:32.716Z,7.90
2019-05-14T23:05:05.300Z,7.86
2019-05-14T23:07:34.697Z,7.82
2019-05-14T23:10:05.871Z,7.79
2019-05-14T23:12:35.278Z,7.72
2019-05-14T23:15:25.721Z,7.65
2019-05-14T23:17:55.117Z,7.59
2019-05-14T23:20:29.090Z,7.57
2019-05-14T23:22:58.379Z,7.51
2019-05-14T23:25:29.149Z,7.47
2019-05-14T23:27:59.121Z,7.45
2019-05-14T23:30:32.927Z,7.43
2019-05-14T23:33:02.681Z,7.40
2019-05-14T23:35:32.380Z,7.32
2019-05-14T23:38:04.016Z,7.25
2019-05-14T23:40:33.510Z,7.16
2019-05-14T23:43:03.479Z,7.09
2019-05-14T23:45:33.013Z,7.00
2019-05-14T23:48:02.490Z,6.95
2019-05-14T23:50:32.112Z,6.91
2019-05-14T23:53:01.812Z,6.87
2019-05-14T23:55:31.428Z,6.85
2019-05-14T23:58:01.082Z,6.83
